createdAt,value
2022-12-25T00:01:46.554Z,13.43
2022-12-25T00:04:13.117Z,15.00
2022-12-25T00:06:39.616Z,12.02
2022-12-25T00:09:06.032Z,16.25
2022-12-25T00:11:32.494Z,15.50
2022-12-25T00:13:58.938Z,11.23
2022-12-25T00:16:26.788Z,10.10
2022-12-25T00:18:54.334Z,13.65
2022-12-25T00:21:22.201Z,11.70
2022-12-25T00:23:54.272Z,14.40
2022-12-25T00:26:21.050Z,11.68
2022-12-25T00:28:47.620Z,11.32
2022-12-25T00:31:18.596Z,13.88
2022-12-25T00:33:47.317Z,12.32
2022-12-25T00:36:15.668Z,11.90
2022-12-25T00:38:42.791Z,12.20
2022-12-25T00:41:11.965Z,13.70
2022-12-25T00:43:39.310Z,13.88
2022-12-25T00:46:06.939Z,13.30
2022-12-25T00:48:34.783Z,11.63
2022-12-25T00:51:04.450Z,13.25
2022-12-25T00:53:31.340Z,15.23
2022-12-25T00:56:00.910Z,13.73
2022-12-25T00:58:30.537Z,14.75
2022-12-25T01:00:57.626Z,14.23
2022-12-25T01:03:24.746Z,15.02
2022-12-25T01:06:00.613Z,13.45
2022-12-25T01:08:28.979Z,14.60
2022-12-25T01:11:01.803Z,15.88
2022-12-25T01:13:29.329Z,13.48
2022-12-25T01:15:55.959Z,14.07
2022-12-25T01:18:24.505Z,16.05
2022-12-25T01:20:51.183Z,12.95
2022-12-25T01:23:17.703Z,15.85
2022-12-25T01:25:44.140Z,16.20
2022-12-25T01:28:10.599Z,14.13
2022-12-25T01:30:37.002Z,14.98
2022-12-25T01:33:03.622Z,15.32
2022-12-25T01:35:30.073Z,14.50
2022-12-25T01:37:56.869Z,15.20
2022-12-25T01:40:23.316Z,15.57
2022-12-25T01:42:49.773Z,16.17
2022-12-25T01:45:37.322Z,15.63
2022-12-25T01:48:11.518Z,19.58
2022-12-25T01:50:40.978Z,20.77
2022-12-25T01:53:07.720Z,19.65
2022-12-25T01:55:36.060Z,20.50
2022-12-25T01:58:02.799Z,18.85
2022-12-25T02:00:29.208Z,19.13
2022-12-25T02:02:56.157Z,17.70
2022-12-25T02:05:34.272Z,16.17
2022-12-25T02:08:06.272Z,18.13
2022-12-25T02:10:32.716Z,20.00
2022-12-25T02:13:00.267Z,21.45
2022-12-25T02:15:34.616Z,18.70
2022-12-25T02:18:07.071Z,18.85
2022-12-25T02:20:40.207Z,25.08
2022-12-25T02:23:20.684Z,19.20
2022-12-25T02:26:17.924Z,20.05
2022-12-25T02:29:00.771Z,21.60
2022-12-25T02:32:02.335Z,17.92
2022-12-25T02:34:39.407Z,19.70
2022-12-25T02:37:21.924Z,17.65
2022-12-25T02:40:00.542Z,19.35
2022-12-25T02:42:58.132Z,21.80
2022-12-25T02:45:56.866Z,22.05
2022-12-25T02:48:54.401Z,18.00
2022-12-25T02:51:41.821Z,23.77
2022-12-25T02:54:32.942Z,19.70
2022-12-25T02:57:22.744Z,19.45
2022-12-25T03:00:12.508Z,19.60
2022-12-25T03:03:01.518Z,21.27
2022-12-25T03:05:50.519Z,20.98
2022-12-25T03:08:22.407Z,22.20
2022-12-25T03:11:18.053Z,37.45
2022-12-25T03:13:49.741Z,25.38
2022-12-25T03:16:34.975Z,18.70
2022-12-25T03:19:21.673Z,18.67
2022-12-25T03:22:23.355Z,29.42
2022-12-25T03:25:08.939Z,25.63
2022-12-25T03:27:35.481Z,19.67
2022-12-25T03:30:20.741Z,21.65
2022-12-25T03:32:58.726Z,21.40
2022-12-25T03:35:44.305Z,19.83
2022-12-25T03:38:50.293Z,18.30
2022-12-25T03:41:56.400Z,20.30
2022-12-25T03:44:56.410Z,17.95
2022-12-25T03:47:35.140Z,18.92
2022-12-25T03:50:51.502Z,19.98
2022-12-25T03:54:08.148Z,18.08
2022-12-25T03:56:56.507Z,21.10
2022-12-25T03:59:42.560Z,22.60
2022-12-25T04:02:28.709Z,21.05
2022-12-25T04:05:13.733Z,22.08
2022-12-25T04:07:58.551Z,20.80
2022-12-25T04:10:43.910Z,19.30
2022-12-25T04:13:29.466Z,22.95
2022-12-25T04:16:14.347Z,18.05
2022-12-25T04:18:59.604Z,17.75
2022-12-25T04:21:44.464Z,20.88
2022-12-25T04:24:29.834Z,20.40
2022-12-25T04:27:15.065Z,17.33
2022-12-25T04:30:10.705Z,19.15
2022-12-25T04:32:55.480Z,24.67
2022-12-25T04:35:40.659Z,18.20
2022-12-25T04:38:07.186Z,18.77
2022-12-25T04:40:33.627Z,18.23
2022-12-25T04:43:00.060Z,20.83
2022-12-25T04:45:26.514Z,22.42
2022-12-25T04:47:52.981Z,21.30
2022-12-25T04:50:19.706Z,21.60
2022-12-25T04:52:46.139Z,22.40
2022-12-25T04:55:12.835Z,21.42
2022-12-25T04:57:39.287Z,24.92
2022-12-25T05:00:06.414Z,21.00
2022-12-25T05:02:33.244Z,22.92
2022-12-25T05:04:59.842Z,21.02
2022-12-25T05:07:26.297Z,22.52
2022-12-25T05:09:52.743Z,23.83
2022-12-25T05:12:19.208Z,20.65
2022-12-25T05:14:46.640Z,28.80
2022-12-25T05:17:13.342Z,25.33
2022-12-25T05:19:39.775Z,26.88
2022-12-25T05:22:06.188Z,26.08
2022-12-25T05:24:32.681Z,26.67
2022-12-25T05:26:59.098Z,31.08
2022-12-25T05:29:25.517Z,28.40
2022-12-25T05:31:52.045Z,27.23
2022-12-25T05:34:18.519Z,28.92
2022-12-25T05:36:44.968Z,24.45
2022-12-25T05:39:11.397Z,26.13
2022-12-25T05:41:37.854Z,27.55
2022-12-25T05:44:04.491Z,30.65
2022-12-25T05:46:31.015Z,26.40
2022-12-25T05:48:57.537Z,26.95
2022-12-25T05:51:25.105Z,22.83
2022-12-25T05:53:51.733Z,27.65
2022-12-25T05:56:18.159Z,29.52
2022-12-25T05:58:44.560Z,23.58
2022-12-25T06:01:17.125Z,24.35
2022-12-25T06:03:43.748Z,32.53
2022-12-25T06:06:10.978Z,29.80
2022-12-25T06:08:37.611Z,23.92
2022-12-25T06:11:05.835Z,32.63
2022-12-25T06:13:33.775Z,23.23
2022-12-25T06:16:03.694Z,26.75
2022-12-25T06:18:30.156Z,22.98
2022-12-25T06:20:56.591Z,29.40
2022-12-25T06:23:23.132Z,23.58
2022-12-25T06:25:49.605Z,29.40
2022-12-25T06:28:16.170Z,25.45
2022-12-25T06:30:42.568Z,21.85
2022-12-25T06:33:09.020Z,23.27
2022-12-25T06:35:39.349Z,24.35
2022-12-25T06:38:06.100Z,23.13
2022-12-25T06:40:32.732Z,20.77
2022-12-25T06:42:59.154Z,25.75
2022-12-25T06:45:25.685Z,24.02
2022-12-25T06:47:52.162Z,23.20
2022-12-25T06:50:18.636Z,22.55
2022-12-25T06:52:45.094Z,23.00
2022-12-25T06:55:11.526Z,23.48
2022-12-25T06:57:37.985Z,26.55
2022-12-25T07:00:05.114Z,26.77
2022-12-25T07:02:33.328Z,22.85
2022-12-25T07:05:00.852Z,26.02
2022-12-25T07:07:27.284Z,25.67
2022-12-25T07:09:53.713Z,18.60
2022-12-25T07:12:25.741Z,23.85
2022-12-25T07:14:54.829Z,24.23
2022-12-25T07:17:22.214Z,28.45
2022-12-25T07:19:49.648Z,25.85
2022-12-25T07:22:16.906Z,23.98
2022-12-25T07:24:43.440Z,17.98
2022-12-25T07:27:10.265Z,23.70
2022-12-25T07:29:36.742Z,19.05
2022-12-25T07:32:03.389Z,23.33
2022-12-25T07:34:29.971Z,19.08
2022-12-25T07:36:56.449Z,22.17
2022-12-25T07:39:23.642Z,22.00
2022-12-25T07:41:50.092Z,20.92
2022-12-25T07:44:16.554Z,19.08
2022-12-25T07:46:42.984Z,22.10
2022-12-25T07:49:10.707Z,27.85
2022-12-25T07:51:37.338Z,29.92
2022-12-25T07:54:04.266Z,26.45
2022-12-25T07:56:30.721Z,24.67
2022-12-25T07:58:57.129Z,21.02
2022-12-25T08:01:26.756Z,28.15
2022-12-25T08:03:58.923Z,25.25
2022-12-25T08:06:29.872Z,19.92
2022-12-25T08:09:08.328Z,22.70
2022-12-25T08:11:35.472Z,23.83
2022-12-25T08:14:01.976Z,21.48
2022-12-25T08:16:28.490Z,29.63
2022-12-25T08:18:55.017Z,25.55
2022-12-25T08:21:21.537Z,26.02
2022-12-25T08:23:48.282Z,22.45
2022-12-25T08:26:18.753Z,24.00
2022-12-25T08:28:45.851Z,25.38
2022-12-25T08:31:27.237Z,26.35
2022-12-25T08:33:56.026Z,34.08
2022-12-25T08:36:23.497Z,24.85
2022-12-25T08:38:50.245Z,23.45
2022-12-25T08:41:17.441Z,22.88
2022-12-25T08:43:44.067Z,23.27
2022-12-25T08:46:10.798Z,23.77
2022-12-25T08:48:38.341Z,22.95
2022-12-25T08:51:08.238Z,22.77
2022-12-25T08:53:34.937Z,19.27
2022-12-25T08:56:04.432Z,22.00
2022-12-25T08:58:31.012Z,21.50
2022-12-25T09:00:57.672Z,25.00
2022-12-25T09:03:24.659Z,24.58
2022-12-25T09:05:52.172Z,22.88
2022-12-25T09:08:18.965Z,25.10
2022-12-25T09:10:45.411Z,16.35
2022-12-25T09:13:12.821Z,19.17
2022-12-25T09:15:39.978Z,24.17
2022-12-25T09:18:06.577Z,20.33
2022-12-25T09:20:33.134Z,24.38
2022-12-25T09:22:59.711Z,18.20
2022-12-25T09:25:26.254Z,24.23
2022-12-25T09:27:52.906Z,21.00
2022-12-25T09:30:19.512Z,22.25
2022-12-25T09:32:45.970Z,17.85
2022-12-25T09:35:13.908Z,19.50
2022-12-25T09:37:40.405Z,25.67
2022-12-25T09:40:07.961Z,20.40
2022-12-25T09:42:34.575Z,22.73
2022-12-25T09:45:12.988Z,22.92
2022-12-25T09:47:43.615Z,25.70
2022-12-25T09:50:22.187Z,22.50
2022-12-25T09:53:00.820Z,23.23
2022-12-25T09:55:31.408Z,25.40
2022-12-25T09:58:09.842Z,22.65
2022-12-25T10:00:42.436Z,22.25
2022-12-25T10:03:21.799Z,28.20
2022-12-25T10:06:08.460Z,40.85
2022-12-25T10:08:53.372Z,36.45
2022-12-25T10:11:25.735Z,32.15
2022-12-25T10:14:07.284Z,32.60
2022-12-25T10:17:04.365Z,26.08
2022-12-25T10:19:51.476Z,28.65
2022-12-25T10:22:31.855Z,24.48
2022-12-25T10:25:00.584Z,26.95
2022-12-25T10:27:34.888Z,28.00
2022-12-25T10:30:02.050Z,25.55
2022-12-25T10:32:28.689Z,30.30
2022-12-25T10:34:55.269Z,24.45
2022-12-25T10:37:21.816Z,26.60
2022-12-25T10:39:48.254Z,26.23
2022-12-25T10:42:29.333Z,28.50
2022-12-25T10:44:56.691Z,23.33
2022-12-25T10:47:30.249Z,27.55
2022-12-25T10:49:57.941Z,26.42
2022-12-25T10:52:27.718Z,24.73
2022-12-25T10:54:55.464Z,21.70
2022-12-25T10:57:24.524Z,24.20
2022-12-25T10:59:58.799Z,23.88
2022-12-25T11:02:28.009Z,24.35
2022-12-25T11:05:04.734Z,22.58
2022-12-25T11:07:33.424Z,24.77
2022-12-25T11:10:05.674Z,24.27
2022-12-25T11:12:38.298Z,35.38
2022-12-25T11:15:26.850Z,26.17
2022-12-25T11:17:53.301Z,24.70
2022-12-25T11:20:20.670Z,24.60
2022-12-25T11:22:49.542Z,22.75
2022-12-25T11:25:25.634Z,29.90
2022-12-25T11:28:01.064Z,26.65
2022-12-25T11:30:32.408Z,24.75
2022-12-25T11:33:02.675Z,22.27
2022-12-25T11:35:32.412Z,26.45
2022-12-25T11:37:58.892Z,23.33
2022-12-25T11:40:29.575Z,24.55
2022-12-25T11:43:07.839Z,27.80
2022-12-25T11:45:41.412Z,23.05
2022-12-25T11:48:14.159Z,25.30
2022-12-25T11:50:45.433Z,22.40
2022-12-25T11:53:20.102Z,24.33
2022-12-25T11:55:54.718Z,23.30
2022-12-25T11:58:36.028Z,23.90
2022-12-25T12:01:08.629Z,27.35
2022-12-25T12:03:38.474Z,22.25
2022-12-25T12:06:20.090Z,28.02
2022-12-25T12:08:51.946Z,24.90
2022-12-25T12:11:32.324Z,23.73
2022-12-25T12:14:29.192Z,23.00
2022-12-25T12:16:55.730Z,24.48
2022-12-25T12:19:26.751Z,23.33
2022-12-25T12:21:56.976Z,27.88
2022-12-25T12:24:27.948Z,22.70
2022-12-25T12:27:13.239Z,23.42
2022-12-25T12:29:48.439Z,24.15
2022-12-25T12:32:37.737Z,24.45
2022-12-25T12:35:14.781Z,25.95
2022-12-25T12:37:42.323Z,22.85
2022-12-25T12:40:24.332Z,22.73
2022-12-25T12:42:52.234Z,21.20
2022-12-25T12:45:32.353Z,23.90
2022-12-25T12:47:58.939Z,28.20
2022-12-25T12:50:37.040Z,21.17
2022-12-25T12:53:23.698Z,19.13
2022-12-25T12:55:51.377Z,21.15
2022-12-25T12:58:33.066Z,22.40
2022-12-25T13:01:11.648Z,32.65
2022-12-25T13:03:55.991Z,26.05
2022-12-25T13:06:40.115Z,33.53
2022-12-25T13:09:27.812Z,35.83
2022-12-25T13:11:54.812Z,36.63
2022-12-25T13:14:23.271Z,34.60
2022-12-25T13:16:52.624Z,35.25
2022-12-25T13:19:24.897Z,32.55
2022-12-25T13:21:55.854Z,31.23
2022-12-25T13:24:25.872Z,31.23
2022-12-25T13:26:53.040Z,31.80
2022-12-25T13:29:28.274Z,25.20
2022-12-25T13:31:55.171Z,26.17
2022-12-25T13:34:32.385Z,24.30
2022-12-25T13:37:09.549Z,22.88
2022-12-25T13:39:39.369Z,23.38
2022-12-25T13:42:09.335Z,23.05
2022-12-25T13:44:51.912Z,21.98
2022-12-25T13:47:18.324Z,21.77
2022-12-25T13:49:45.285Z,25.77
2022-12-25T13:52:14.916Z,23.73
2022-12-25T13:54:57.609Z,24.90
2022-12-25T13:57:28.367Z,20.73
2022-12-25T13:59:55.658Z,26.42
2022-12-25T14:02:28.464Z,19.00
2022-12-25T14:04:55.261Z,20.23
2022-12-25T14:07:24.050Z,19.80
2022-12-25T14:09:56.146Z,23.45
2022-12-25T14:12:24.286Z,23.88
2022-12-25T14:14:52.699Z,18.45
2022-12-25T14:17:19.524Z,20.75
2022-12-25T14:19:45.979Z,20.42
2022-12-25T14:22:22.588Z,19.48
2022-12-25T14:24:49.259Z,23.00
2022-12-25T14:27:25.016Z,20.92
2022-12-25T14:29:55.016Z,27.42
2022-12-25T14:32:27.183Z,34.63
2022-12-25T14:34:59.485Z,26.02
2022-12-25T14:37:30.447Z,28.50
2022-12-25T14:40:02.378Z,21.80
2022-12-25T14:42:32.703Z,26.08
2022-12-25T14:45:07.368Z,22.58
2022-12-25T14:47:50.606Z,24.92
2022-12-25T14:50:38.511Z,26.80
2022-12-25T14:53:16.536Z,20.73
2022-12-25T14:55:48.104Z,19.52
2022-12-25T14:58:21.996Z,22.25
2022-12-25T15:00:58.598Z,20.15
2022-12-25T15:03:32.240Z,28.17
2022-12-25T15:06:11.163Z,21.23
2022-12-25T15:08:37.623Z,21.02
2022-12-25T15:11:04.435Z,21.52
2022-12-25T15:13:31.412Z,18.20
2022-12-25T15:16:12.417Z,21.70
2022-12-25T15:18:43.434Z,22.15
2022-12-25T15:21:17.607Z,21.33
2022-12-25T15:23:44.391Z,22.15
2022-12-25T15:26:14.263Z,18.73
2022-12-25T15:28:40.938Z,20.20
2022-12-25T15:31:21.125Z,24.05
2022-12-25T15:33:48.546Z,22.33
2022-12-25T15:36:15.304Z,20.55
2022-12-25T15:38:41.812Z,23.08
2022-12-25T15:41:35.784Z,21.90
2022-12-25T15:44:03.361Z,20.77
2022-12-25T15:46:30.081Z,19.48
2022-12-25T15:48:56.564Z,22.63
2022-12-25T15:51:23.227Z,22.88
2022-12-25T15:53:49.918Z,29.95
2022-12-25T15:56:16.452Z,29.33
2022-12-25T15:58:42.858Z,27.58
2022-12-25T16:01:15.300Z,24.55
2022-12-25T16:03:42.773Z,23.70
2022-12-25T16:06:14.530Z,26.95
2022-12-25T16:08:41.679Z,21.98
2022-12-25T16:11:08.347Z,24.63
2022-12-25T16:13:35.214Z,23.20
2022-12-25T16:16:02.835Z,19.55
2022-12-25T16:18:30.494Z,23.27
2022-12-25T16:20:58.745Z,17.30
2022-12-25T16:23:25.396Z,20.80
2022-12-25T16:25:51.865Z,16.90
2022-12-25T16:28:18.343Z,23.38
2022-12-25T16:30:45.150Z,17.45
2022-12-25T16:33:11.736Z,22.85
2022-12-25T16:35:38.215Z,18.42
2022-12-25T16:38:04.679Z,19.65
2022-12-25T16:40:31.903Z,21.17
2022-12-25T16:42:58.473Z,24.17
2022-12-25T16:45:24.950Z,21.40
2022-12-25T16:47:51.352Z,21.15
2022-12-25T16:50:17.906Z,20.95
2022-12-25T16:52:45.422Z,20.92
2022-12-25T16:55:11.884Z,19.88
2022-12-25T16:57:38.352Z,20.38
2022-12-25T17:00:05.741Z,25.30
2022-12-25T17:02:32.389Z,21.88
2022-12-25T17:05:00.373Z,20.00
2022-12-25T17:07:27.193Z,19.52
2022-12-25T17:09:53.804Z,20.45
2022-12-25T17:12:20.489Z,17.42
2022-12-25T17:14:46.996Z,20.25
2022-12-25T17:17:13.546Z,20.30
2022-12-25T17:19:40.048Z,20.98
2022-12-25T17:22:07.340Z,18.70
2022-12-25T17:24:36.255Z,18.55
2022-12-25T17:27:03.419Z,18.83
2022-12-25T17:29:31.779Z,19.98
2022-12-25T17:31:58.235Z,18.92
2022-12-25T17:34:24.826Z,18.58
2022-12-25T17:36:52.851Z,18.33
2022-12-25T17:39:19.443Z,18.40
2022-12-25T17:41:45.915Z,19.73
2022-12-25T17:44:12.420Z,21.45
2022-12-25T17:46:38.891Z,17.90
2022-12-25T17:49:05.698Z,19.42
2022-12-25T17:51:32.571Z,21.40
2022-12-25T17:54:03.131Z,16.98
2022-12-25T17:56:30.398Z,16.27
2022-12-25T17:58:59.942Z,17.63
2022-12-25T18:01:28.248Z,16.38
2022-12-25T18:03:55.294Z,16.90
2022-12-25T18:06:25.379Z,17.65
2022-12-25T18:08:54.459Z,16.98
2022-12-25T18:11:24.565Z,16.63
2022-12-25T18:13:53.279Z,19.77
2022-12-25T18:16:22.202Z,16.90
2022-12-25T18:18:52.284Z,20.30
2022-12-25T18:21:20.098Z,21.23
2022-12-25T18:23:46.632Z,19.77
2022-12-25T18:26:13.503Z,20.05
2022-12-25T18:28:42.304Z,19.00
2022-12-25T18:31:11.035Z,17.63
2022-12-25T18:33:37.544Z,16.92
2022-12-25T18:36:04.620Z,16.80
2022-12-25T18:38:31.092Z,15.48
2022-12-25T18:40:57.931Z,14.32
2022-12-25T18:43:52.289Z,14.82
2022-12-25T18:46:11.554Z,13.20
2022-12-25T18:48:39.251Z,13.40
2022-12-25T18:51:08.727Z,13.55
2022-12-25T18:53:36.082Z,12.95
2022-12-25T18:56:15.185Z,12.77
2022-12-25T18:58:41.835Z,10.70
2022-12-25T19:01:17.051Z,10.50
2022-12-25T19:03:43.853Z,10.55
2022-12-25T19:06:17.266Z,9.55
2022-12-25T19:08:43.776Z,9.70
2022-12-25T19:11:10.277Z,11.25
2022-12-25T19:13:36.722Z,16.50
2022-12-25T19:16:03.668Z,17.10
2022-12-25T19:18:30.551Z,17.70
2022-12-25T19:21:00.233Z,20.05
2022-12-25T19:23:26.628Z,19.77
2022-12-25T19:25:53.082Z,23.20
2022-12-25T19:28:19.591Z,28.58
2022-12-25T19:30:46.107Z,28.42
2022-12-25T19:33:17.701Z,26.83
2022-12-25T19:35:44.630Z,24.15
2022-12-25T19:38:11.332Z,22.17
2022-12-25T19:40:39.679Z,22.00
2022-12-25T19:43:07.369Z,19.20
2022-12-25T19:45:33.906Z,16.10
2022-12-25T19:48:00.449Z,17.13
2022-12-25T19:50:28.448Z,14.18
2022-12-25T19:52:55.662Z,13.05
2022-12-25T19:55:22.177Z,14.50
2022-12-25T19:57:49.639Z,11.48
2022-12-25T20:00:16.479Z,10.48
2022-12-25T20:02:43.378Z,12.70
2022-12-25T20:05:09.879Z,10.93
2022-12-25T20:07:36.315Z,11.82
2022-12-25T20:10:02.744Z,10.25
2022-12-25T20:12:29.206Z,11.57
2022-12-25T20:14:56.029Z,11.45
2022-12-25T20:17:22.549Z,10.45
2022-12-25T20:19:48.993Z,11.40
2022-12-25T20:22:15.474Z,11.32
2022-12-25T20:24:41.928Z,9.52
2022-12-25T20:27:08.516Z,10.15
2022-12-25T20:29:35.029Z,10.18
2022-12-25T20:32:01.594Z,10.32
2022-12-25T20:34:28.195Z,12.30
2022-12-25T20:36:56.090Z,12.80
2022-12-25T20:39:22.574Z,14.93
2022-12-25T20:41:49.000Z,14.02
2022-12-25T20:44:15.426Z,11.95
2022-12-25T20:46:41.934Z,12.73
2022-12-25T20:49:08.614Z,12.50
2022-12-25T20:51:35.171Z,12.98
2022-12-25T20:54:06.186Z,14.50
2022-12-25T20:56:32.619Z,13.40
2022-12-25T20:59:00.266Z,14.50
2022-12-25T21:01:28.663Z,14.23
2022-12-25T21:03:55.872Z,13.88
2022-12-25T21:06:22.914Z,13.23
2022-12-25T21:08:49.383Z,12.30
2022-12-25T21:11:16.738Z,11.50
2022-12-25T21:13:45.117Z,12.32
2022-12-25T21:16:15.082Z,11.95
2022-12-25T21:18:41.763Z,13.07
2022-12-25T21:21:08.683Z,13.45
2022-12-25T21:23:37.463Z,12.18
2022-12-25T21:26:18.374Z,13.77
2022-12-25T21:28:46.694Z,11.65
2022-12-25T21:31:13.477Z,12.07
2022-12-25T21:33:52.018Z,12.23
2022-12-25T21:36:24.941Z,11.00
2022-12-25T21:39:14.159Z,10.73
2022-12-25T21:41:40.645Z,12.23
2022-12-25T21:44:07.907Z,11.43
2022-12-25T21:46:34.455Z,10.68
2022-12-25T21:49:01.072Z,12.15
2022-12-25T21:51:51.483Z,10.60
2022-12-25T21:54:20.747Z,10.13
2022-12-25T21:56:48.690Z,11.95
2022-12-25T21:59:18.779Z,11.65
2022-12-25T22:01:47.025Z,11.60
2022-12-25T22:04:15.527Z,12.30
2022-12-25T22:07:00.871Z,11.45
2022-12-25T22:09:27.353Z,11.85
2022-12-25T22:12:12.427Z,11.65
2022-12-25T22:14:55.344Z,13.15
2022-12-25T22:17:47.310Z,13.13
2022-12-25T22:20:22.660Z,12.38
2022-12-25T22:22:49.448Z,12.05
2022-12-25T22:25:17.092Z,12.40
2022-12-25T22:27:44.834Z,13.18
2022-12-25T22:30:20.014Z,14.05
2022-12-25T22:32:46.767Z,13.70
2022-12-25T22:35:14.151Z,12.85
2022-12-25T22:37:42.213Z,13.77
2022-12-25T22:40:11.018Z,13.68
2022-12-25T22:42:37.505Z,15.38
2022-12-25T22:45:04.703Z,12.80
2022-12-25T22:47:31.484Z,12.25
2022-12-25T22:49:57.996Z,14.63
2022-12-25T22:52:24.707Z,16.25
2022-12-25T22:54:51.217Z,15.75
2022-12-25T22:57:17.667Z,13.30
2022-12-25T22:59:44.221Z,13.73
2022-12-25T23:02:10.816Z,16.67
2022-12-25T23:04:37.342Z,16.05
2022-12-25T23:07:03.852Z,15.38
2022-12-25T23:09:30.577Z,14.38
2022-12-25T23:11:58.208Z,15.52
2022-12-25T23:14:41.588Z,15.15
2022-12-25T23:17:32.393Z,15.57
2022-12-25T23:20:18.754Z,19.58
2022-12-25T23:23:04.886Z,17.60
2022-12-25T23:25:50.240Z,16.83
2022-12-25T23:28:36.871Z,16.70
2022-12-25T23:31:03.631Z,17.20
2022-12-25T23:33:30.211Z,15.90
2022-12-25T23:35:56.631Z,16.20
2022-12-25T23:38:23.176Z,17.23
2022-12-25T23:40:49.599Z,15.95
2022-12-25T23:43:16.062Z,17.48
2022-12-25T23:45:42.522Z,16.52
2022-12-25T23:48:08.951Z,16.30
2022-12-25T23:50:35.422Z,16.88
2022-12-25T23:53:01.874Z,17.73
2022-12-25T23:55:28.361Z,18.42
2022-12-25T23:57:54.856Z,15.93
